< < Back
Terminal Aerodrome Forecast


Current Version              Previous Versions:   1  2  3  4  5  6  7  8  9  

Terminal Aerodrome Forecast

550
FTUS42 KFFC 060731 AAA
TAFATL
TAF AMD
KATL 060731Z 0608/0712 33010G15KT P6SM BKN012
     FM061100 01007KT P6SM BKN025
     FM061500 01007KT P6SM SCT025
     FM061800 01006KT P6SM SCT035
     FM062000 33005KT P6SM FEW250=



Latest METAR

685
SAUS70 KWBC 061200 RRB
MTRATL
METAR KATL 061152Z 34008KT 7SM OVC012 M02/M05 A3037 RMK AO2 SLP295 70006
T10221050 11017 21022 53016


USA.gov is the U.S. government's official web portal to all federal, state and local government web resources and services.